sensor_id;sensor_type;location;lat;lon;timestamp;P1;durP1;ratioP1;P2;durP2;ratioP2
60610;SDS011;46439;51.164;13.572;2024-01-15T00:00:39;16.80;;;8.40;;
60610;SDS011;46439;51.164;13.572;2024-01-15T00:03:07;15.30;;;6.90;;
60610;SDS011;46439;51.164;13.572;2024-01-15T00:05:37;12.90;;;6.70;;
60610;SDS011;46439;51.164;13.572;2024-01-15T00:08:05;14.10;;;6.80;;
60610;SDS011;46439;51.164;13.572;2024-01-15T00:10:33;14.90;;;7.30;;
60610;SDS011;46439;51.164;13.572;2024-01-15T00:13:08;13.90;;;6.60;;
60610;SDS011;46439;51.164;13.572;2024-01-15T00:15:37;15.70;;;7.60;;
60610;SDS011;46439;51.164;13.572;2024-01-15T00:18:12;16.20;;;7.50;;
60610;SDS011;46439;51.164;13.572;2024-01-15T00:20:40;16.80;;;7.80;;
60610;SDS011;46439;51.164;13.572;2024-01-15T00:23:09;16.40;;;7.70;;
60610;SDS011;46439;51.164;13.572;2024-01-15T00:25:37;15.30;;;7.10;;
60610;SDS011;46439;51.164;13.572;2024-01-15T00:28:08;15.00;;;7.20;;
60610;SDS011;46439;51.164;13.572;2024-01-15T00:30:36;16.80;;;8.00;;
60610;SDS011;46439;51.164;13.572;2024-01-15T00:33:05;14.50;;;7.10;;
60610;SDS011;46439;51.164;13.572;2024-01-15T00:35:34;14.90;;;7.60;;
60610;SDS011;46439;51.164;13.572;2024-01-15T00:38:04;14.80;;;7.60;;
60610;SDS011;46439;51.164;13.572;2024-01-15T00:40:33;14.30;;;7.50;;
60610;SDS011;46439;51.164;13.572;2024-01-15T00:43:01;15.40;;;7.50;;
60610;SDS011;46439;51.164;13.572;2024-01-15T00:45:30;14.00;;;7.10;;
60610;SDS011;46439;51.164;13.572;2024-01-15T00:47:58;13.70;;;6.80;;
60610;SDS011;46439;51.164;13.572;2024-01-15T00:50:27;17.20;;;8.10;;
60610;SDS011;46439;51.164;13.572;2024-01-15T00:52:56;16.30;;;7.80;;
60610;SDS011;46439;51.164;13.572;2024-01-15T00:55:24;16.10;;;7.30;;
60610;SDS011;46439;51.164;13.572;2024-01-15T00:57:52;17.40;;;7.40;;
60610;SDS011;46439;51.164;13.572;2024-01-15T01:00:20;13.80;;;7.40;;
60610;SDS011;46439;51.164;13.572;2024-01-15T01:02:48;16.40;;;7.40;;
60610;SDS011;46439;51.164;13.572;2024-01-15T01:05:16;12.80;;;6.40;;
60610;SDS011;46439;51.164;13.572;2024-01-15T01:07:44;14.90;;;8.10;;
60610;SDS011;46439;51.164;13.572;2024-01-15T01:10:12;13.80;;;7.20;;
60610;SDS011;46439;51.164;13.572;2024-01-15T01:12:41;16.80;;;7.60;;
60610;SDS011;46439;51.164;13.572;2024-01-15T01:15:09;16.10;;;7.10;;
60610;SDS011;46439;51.164;13.572;2024-01-15T01:17:37;14.50;;;7.30;;
60610;SDS011;46439;51.164;13.572;2024-01-15T01:20:07;16.00;;;7.90;;
60610;SDS011;46439;51.164;13.572;2024-01-15T01:22:36;15.90;;;7.50;;
60610;SDS011;46439;51.164;13.572;2024-01-15T01:25:06;16.40;;;8.00;;
60610;SDS011;46439;51.164;13.572;2024-01-15T01:27:36;19.20;;;8.40;;
60610;SDS011;46439;51.164;13.572;2024-01-15T01:30:05;17.80;;;7.60;;
60610;SDS011;46439;51.164;13.572;2024-01-15T01:32:34;16.80;;;8.30;;
60610;SDS011;46439;51.164;13.572;2024-01-15T01:35:02;14.70;;;7.50;;
60610;SDS011;46439;51.164;13.572;2024-01-15T01:37:31;14.80;;;7.50;;
60610;SDS011;46439;51.164;13.572;2024-01-15T01:40:00;11.90;;;6.20;;
60610;SDS011;46439;51.164;13.572;2024-01-15T01:42:29;15.10;;;7.80;;
60610;SDS011;46439;51.164;13.572;2024-01-15T01:44:57;16.10;;;7.30;;
60610;SDS011;46439;51.164;13.572;2024-01-15T01:47:25;15.30;;;7.50;;
60610;SDS011;46439;51.164;13.572;2024-01-15T01:49:53;15.30;;;8.30;;
60610;SDS011;46439;51.164;13.572;2024-01-15T01:52:22;16.80;;;8.00;;
60610;SDS011;46439;51.164;13.572;2024-01-15T01:54:50;16.70;;;7.90;;
60610;SDS011;46439;51.164;13.572;2024-01-15T01:57:20;14.90;;;7.50;;
60610;SDS011;46439;51.164;13.572;2024-01-15T01:59:48;16.90;;;7.50;;
60610;SDS011;46439;51.164;13.572;2024-01-15T02:02:17;16.70;;;8.00;;
60610;SDS011;46439;51.164;13.572;2024-01-15T02:04:48;19.90;;;8.80;;
60610;SDS011;46439;51.164;13.572;2024-01-15T02:07:17;13.50;;;7.10;;
60610;SDS011;46439;51.164;13.572;2024-01-15T02:09:45;16.60;;;7.90;;
60610;SDS011;46439;51.164;13.572;2024-01-15T02:12:14;16.20;;;8.30;;
60610;SDS011;46439;51.164;13.572;2024-01-15T02:14:42;13.80;;;6.90;;
60610;SDS011;46439;51.164;13.572;2024-01-15T02:17:10;16.50;;;7.20;;
60610;SDS011;46439;51.164;13.572;2024-01-15T02:19:38;16.60;;;6.90;;
60610;SDS011;46439;51.164;13.572;2024-01-15T02:22:07;15.50;;;7.60;;
60610;SDS011;46439;51.164;13.572;2024-01-15T02:24:35;17.40;;;8.30;;
60610;SDS011;46439;51.164;13.572;2024-01-15T02:27:03;16.80;;;6.50;;
60610;SDS011;46439;51.164;13.572;2024-01-15T02:29:32;18.00;;;7.90;;
60610;SDS011;46439;51.164;13.572;2024-01-15T02:32:00;15.70;;;7.70;;
60610;SDS011;46439;51.164;13.572;2024-01-15T02:34:32;14.50;;;6.90;;
60610;SDS011;46439;51.164;13.572;2024-01-15T02:37:01;13.90;;;7.50;;
60610;SDS011;46439;51.164;13.572;2024-01-15T02:39:29;16.50;;;8.40;;
60610;SDS011;46439;51.164;13.572;2024-01-15T02:41:57;13.60;;;7.00;;
60610;SDS011;46439;51.164;13.572;2024-01-15T02:44:25;18.40;;;6.80;;
60610;SDS011;46439;51.164;13.572;2024-01-15T02:46:53;13.50;;;6.80;;
60610;SDS011;46439;51.164;13.572;2024-01-15T02:49:21;15.50;;;6.90;;
60610;SDS011;46439;51.164;13.572;2024-01-15T02:51:49;15.00;;;7.80;;
60610;SDS011;46439;51.164;13.572;2024-01-15T02:54:17;17.50;;;8.20;;
60610;SDS011;46439;51.164;13.572;2024-01-15T02:56:45;16.20;;;8.00;;
60610;SDS011;46439;51.164;13.572;2024-01-15T02:59:13;15.50;;;7.80;;
60610;SDS011;46439;51.164;13.572;2024-01-15T03:01:41;19.40;;;7.10;;
60610;SDS011;46439;51.164;13.572;2024-01-15T03:04:09;12.70;;;7.70;;
60610;SDS011;46439;51.164;13.572;2024-01-15T03:06:37;12.60;;;7.10;;
60610;SDS011;46439;51.164;13.572;2024-01-15T03:09:05;16.90;;;7.70;;
60610;SDS011;46439;51.164;13.572;2024-01-15T03:11:38;19.00;;;8.30;;
60610;SDS011;46439;51.164;13.572;2024-01-15T03:14:07;15.20;;;7.90;;
60610;SDS011;46439;51.164;13.572;2024-01-15T03:16:35;15.20;;;7.90;;
60610;SDS011;46439;51.164;13.572;2024-01-15T03:19:03;15.40;;;7.60;;
60610;SDS011;46439;51.164;13.572;2024-01-15T03:21:31;16.30;;;8.00;;
60610;SDS011;46439;51.164;13.572;2024-01-15T03:23:59;15.90;;;7.90;;
60610;SDS011;46439;51.164;13.572;2024-01-15T03:26:27;16.20;;;8.20;;
60610;SDS011;46439;51.164;13.572;2024-01-15T03:28:55;13.60;;;7.20;;
60610;SDS011;46439;51.164;13.572;2024-01-15T03:31:24;17.50;;;8.20;;
60610;SDS011;46439;51.164;13.572;2024-01-15T03:33:52;13.60;;;6.90;;
60610;SDS011;46439;51.164;13.572;2024-01-15T03:36:20;18.30;;;8.10;;
60610;SDS011;46439;51.164;13.572;2024-01-15T03:38:48;16.30;;;8.00;;
60610;SDS011;46439;51.164;13.572;2024-01-15T03:41:16;14.60;;;8.00;;
60610;SDS011;46439;51.164;13.572;2024-01-15T03:43:44;15.50;;;7.40;;
60610;SDS011;46439;51.164;13.572;2024-01-15T03:46:12;17.00;;;8.10;;
60610;SDS011;46439;51.164;13.572;2024-01-15T03:48:40;15.30;;;8.00;;
60610;SDS011;46439;51.164;13.572;2024-01-15T03:51:08;14.10;;;7.70;;
60610;SDS011;46439;51.164;13.572;2024-01-15T03:53:37;18.30;;;8.30;;
60610;SDS011;46439;51.164;13.572;2024-01-15T03:56:05;14.20;;;7.20;;
60610;SDS011;46439;51.164;13.572;2024-01-15T03:58:33;17.10;;;8.60;;
60610;SDS011;46439;51.164;13.572;2024-01-15T04:01:02;17.90;;;8.50;;
60610;SDS011;46439;51.164;13.572;2024-01-15T04:03:30;14.40;;;7.20;;
60610;SDS011;46439;51.164;13.572;2024-01-15T04:05:58;14.50;;;7.30;;
60610;SDS011;46439;51.164;13.572;2024-01-15T04:08:26;14.80;;;7.50;;
60610;SDS011;46439;51.164;13.572;2024-01-15T04:10:54;17.90;;;7.50;;
60610;SDS011;46439;51.164;13.572;2024-01-15T04:13:22;15.90;;;8.10;;
60610;SDS011;46439;51.164;13.572;2024-01-15T04:15:50;15.90;;;8.10;;
60610;SDS011;46439;51.164;13.572;2024-01-15T04:18:18;15.00;;;7.90;;
60610;SDS011;46439;51.164;13.572;2024-01-15T04:20:46;13.10;;;7.00;;
60610;SDS011;46439;51.164;13.572;2024-01-15T04:23:14;16.60;;;8.10;;
60610;SDS011;46439;51.164;13.572;2024-01-15T04:25:42;17.00;;;8.70;;
60610;SDS011;46439;51.164;13.572;2024-01-15T04:28:12;16.90;;;8.10;;
60610;SDS011;46439;51.164;13.572;2024-01-15T04:30:40;14.20;;;7.30;;
60610;SDS011;46439;51.164;13.572;2024-01-15T04:33:08;13.20;;;7.40;;
60610;SDS011;46439;51.164;13.572;2024-01-15T04:35:36;14.10;;;6.40;;
60610;SDS011;46439;51.164;13.572;2024-01-15T04:38:05;16.10;;;6.70;;
60610;SDS011;46439;51.164;13.572;2024-01-15T04:40:33;14.30;;;6.50;;
60610;SDS011;46439;51.164;13.572;2024-01-15T04:43:01;15.50;;;8.00;;
60610;SDS011;46439;51.164;13.572;2024-01-15T04:45:29;13.40;;;6.20;;
60610;SDS011;46439;51.164;13.572;2024-01-15T04:47:57;15.70;;;7.30;;
60610;SDS011;46439;51.164;13.572;2024-01-15T04:50:25;14.30;;;7.10;;
60610;SDS011;46439;51.164;13.572;2024-01-15T04:52:53;15.00;;;7.00;;
60610;SDS011;46439;51.164;13.572;2024-01-15T04:55:21;16.90;;;7.90;;
60610;SDS011;46439;51.164;13.572;2024-01-15T04:57:49;14.30;;;6.60;;
60610;SDS011;46439;51.164;13.572;2024-01-15T05:00:17;14.40;;;6.30;;
60610;SDS011;46439;51.164;13.572;2024-01-15T05:02:46;16.30;;;6.90;;
60610;SDS011;46439;51.164;13.572;2024-01-15T05:05:14;15.50;;;7.60;;
60610;SDS011;46439;51.164;13.572;2024-01-15T05:07:42;15.90;;;8.00;;
60610;SDS011;46439;51.164;13.572;2024-01-15T05:10:10;17.30;;;7.60;;
60610;SDS011;46439;51.164;13.572;2024-01-15T05:12:39;15.10;;;7.00;;
60610;SDS011;46439;51.164;13.572;2024-01-15T05:15:07;16.80;;;7.90;;
60610;SDS011;46439;51.164;13.572;2024-01-15T05:17:36;16.60;;;7.50;;
60610;SDS011;46439;51.164;13.572;2024-01-15T05:20:05;15.20;;;6.90;;
60610;SDS011;46439;51.164;13.572;2024-01-15T05:22:33;18.70;;;7.80;;
60610;SDS011;46439;51.164;13.572;2024-01-15T05:25:01;15.50;;;6.90;;
60610;SDS011;46439;51.164;13.572;2024-01-15T05:27:30;15.50;;;7.50;;
60610;SDS011;46439;51.164;13.572;2024-01-15T05:29:58;18.70;;;8.80;;
60610;SDS011;46439;51.164;13.572;2024-01-15T05:32:26;17.30;;;8.10;;
60610;SDS011;46439;51.164;13.572;2024-01-15T05:34:54;16.90;;;7.80;;
60610;SDS011;46439;51.164;13.572;2024-01-15T05:37:23;16.50;;;6.80;;
60610;SDS011;46439;51.164;13.572;2024-01-15T05:39:51;16.90;;;8.00;;
60610;SDS011;46439;51.164;13.572;2024-01-15T05:42:19;17.90;;;8.50;;
60610;SDS011;46439;51.164;13.572;2024-01-15T05:44:47;15.50;;;7.00;;
60610;SDS011;46439;51.164;13.572;2024-01-15T05:47:15;15.80;;;7.10;;
60610;SDS011;46439;51.164;13.572;2024-01-15T05:49:44;14.30;;;6.60;;
60610;SDS011;46439;51.164;13.572;2024-01-15T05:52:12;14.10;;;6.50;;
60610;SDS011;46439;51.164;13.572;2024-01-15T05:54:40;16.20;;;7.60;;
60610;SDS011;46439;51.164;13.572;2024-01-15T05:57:08;15.00;;;7.40;;
60610;SDS011;46439;51.164;13.572;2024-01-15T05:59:36;15.50;;;6.90;;
60610;SDS011;46439;51.164;13.572;2024-01-15T06:02:04;16.30;;;7.30;;
60610;SDS011;46439;51.164;13.572;2024-01-15T06:04:33;13.50;;;6.40;;
60610;SDS011;46439;51.164;13.572;2024-01-15T06:07:01;15.70;;;7.40;;
60610;SDS011;46439;51.164;13.572;2024-01-15T06:09:29;17.40;;;7.20;;
60610;SDS011;46439;51.164;13.572;2024-01-15T06:11:58;13.90;;;7.10;;
60610;SDS011;46439;51.164;13.572;2024-01-15T06:14:26;14.20;;;6.80;;
60610;SDS011;46439;51.164;13.572;2024-01-15T06:16:54;13.60;;;7.20;;
60610;SDS011;46439;51.164;13.572;2024-01-15T06:19:22;13.20;;;6.90;;
60610;SDS011;46439;51.164;13.572;2024-01-15T06:21:51;14.70;;;6.90;;
60610;SDS011;46439;51.164;13.572;2024-01-15T06:24:25;14.10;;;5.40;;
60610;SDS011;46439;51.164;13.572;2024-01-15T06:26:53;14.10;;;7.20;;
60610;SDS011;46439;51.164;13.572;2024-01-15T06:29:21;16.80;;;8.20;;
60610;SDS011;46439;51.164;13.572;2024-01-15T06:31:52;19.00;;;8.90;;
60610;SDS011;46439;51.164;13.572;2024-01-15T06:34:20;16.00;;;7.20;;
60610;SDS011;46439;51.164;13.572;2024-01-15T06:36:48;13.80;;;6.70;;
60610;SDS011;46439;51.164;13.572;2024-01-15T06:39:16;13.40;;;6.00;;
60610;SDS011;46439;51.164;13.572;2024-01-15T06:41:44;11.70;;;5.20;;
60610;SDS011;46439;51.164;13.572;2024-01-15T06:44:13;11.60;;;5.70;;
60610;SDS011;46439;51.164;13.572;2024-01-15T06:46:43;14.60;;;6.40;;
60610;SDS011;46439;51.164;13.572;2024-01-15T06:49:11;14.00;;;6.50;;
60610;SDS011;46439;51.164;13.572;2024-01-15T06:51:40;11.20;;;5.50;;
60610;SDS011;46439;51.164;13.572;2024-01-15T06:54:08;13.90;;;6.70;;
60610;SDS011;46439;51.164;13.572;2024-01-15T06:56:36;13.20;;;5.40;;
60610;SDS011;46439;51.164;13.572;2024-01-15T06:59:04;12.90;;;5.70;;
60610;SDS011;46439;51.164;13.572;2024-01-15T07:01:32;12.70;;;5.90;;
60610;SDS011;46439;51.164;13.572;2024-01-15T07:04:00;14.00;;;6.80;;
60610;SDS011;46439;51.164;13.572;2024-01-15T07:06:29;13.80;;;5.90;;
60610;SDS011;46439;51.164;13.572;2024-01-15T07:08:58;11.40;;;5.80;;
60610;SDS011;46439;51.164;13.572;2024-01-15T07:11:26;10.20;;;4.90;;
60610;SDS011;46439;51.164;13.572;2024-01-15T07:13:54;11.20;;;4.60;;
60610;SDS011;46439;51.164;13.572;2024-01-15T07:16:23;11.10;;;5.10;;
60610;SDS011;46439;51.164;13.572;2024-01-15T07:18:51;11.20;;;5.20;;
60610;SDS011;46439;51.164;13.572;2024-01-15T07:21:19;12.20;;;5.40;;
60610;SDS011;46439;51.164;13.572;2024-01-15T07:23:47;13.80;;;5.40;;
60610;SDS011;46439;51.164;13.572;2024-01-15T07:26:15;12.30;;;6.00;;
60610;SDS011;46439;51.164;13.572;2024-01-15T07:28:43;11.20;;;5.30;;
60610;SDS011;46439;51.164;13.572;2024-01-15T07:31:11;12.20;;;5.80;;
60610;SDS011;46439;51.164;13.572;2024-01-15T07:33:41;13.40;;;5.00;;
60610;SDS011;46439;51.164;13.572;2024-01-15T07:36:09;10.90;;;5.40;;
60610;SDS011;46439;51.164;13.572;2024-01-15T07:38:37;12.60;;;6.50;;
60610;SDS011;46439;51.164;13.572;2024-01-15T07:41:05;12.40;;;6.10;;
60610;SDS011;46439;51.164;13.572;2024-01-15T07:43:34;9.80;;;5.20;;
60610;SDS011;46439;51.164;13.572;2024-01-15T07:46:02;9.90;;;4.60;;
60610;SDS011;46439;51.164;13.572;2024-01-15T07:48:30;9.90;;;5.70;;
60610;SDS011;46439;51.164;13.572;2024-01-15T07:50:58;9.90;;;5.60;;
60610;SDS011;46439;51.164;13.572;2024-01-15T07:53:27;9.00;;;5.40;;
60610;SDS011;46439;51.164;13.572;2024-01-15T07:55:55;13.30;;;5.60;;
60610;SDS011;46439;51.164;13.572;2024-01-15T07:58:23;13.10;;;5.30;;
60610;SDS011;46439;51.164;13.572;2024-01-15T08:00:51;12.50;;;6.30;;
60610;SDS011;46439;51.164;13.572;2024-01-15T08:03:19;13.20;;;5.70;;
60610;SDS011;46439;51.164;13.572;2024-01-15T08:05:47;10.20;;;5.10;;
60610;SDS011;46439;51.164;13.572;2024-01-15T08:08:18;12.30;;;5.90;;
60610;SDS011;46439;51.164;13.572;2024-01-15T08:10:48;9.40;;;3.90;;
60610;SDS011;46439;51.164;13.572;2024-01-15T08:13:16;10.10;;;5.20;;
60610;SDS011;46439;51.164;13.572;2024-01-15T08:15:44;14.50;;;6.00;;
60610;SDS011;46439;51.164;13.572;2024-01-15T08:18:12;14.70;;;6.30;;
60610;SDS011;46439;51.164;13.572;2024-01-15T08:20:40;13.40;;;5.60;;
60610;SDS011;46439;51.164;13.572;2024-01-15T08:23:08;12.30;;;5.20;;
60610;SDS011;46439;51.164;13.572;2024-01-15T08:25:36;9.30;;;4.70;;
60610;SDS011;46439;51.164;13.572;2024-01-15T08:28:05;11.80;;;5.40;;
60610;SDS011;46439;51.164;13.572;2024-01-15T08:30:34;13.90;;;5.60;;
60610;SDS011;46439;51.164;13.572;2024-01-15T08:33:03;9.60;;;5.20;;
60610;SDS011;46439;51.164;13.572;2024-01-15T08:35:31;12.20;;;5.30;;
60610;SDS011;46439;51.164;13.572;2024-01-15T08:37:59;11.50;;;5.80;;
60610;SDS011;46439;51.164;13.572;2024-01-15T08:40:27;12.70;;;6.10;;
60610;SDS011;46439;51.164;13.572;2024-01-15T08:42:55;14.30;;;6.40;;
60610;SDS011;46439;51.164;13.572;2024-01-15T08:45:23;11.40;;;5.50;;
60610;SDS011;46439;51.164;13.572;2024-01-15T08:47:51;12.90;;;6.10;;
60610;SDS011;46439;51.164;13.572;2024-01-15T08:50:19;11.50;;;5.60;;
60610;SDS011;46439;51.164;13.572;2024-01-15T08:52:48;11.30;;;5.30;;
60610;SDS011;46439;51.164;13.572;2024-01-15T08:55:16;12.10;;;5.60;;
60610;SDS011;46439;51.164;13.572;2024-01-15T08:57:44;10.90;;;5.60;;
60610;SDS011;46439;51.164;13.572;2024-01-15T09:00:13;11.50;;;5.90;;
60610;SDS011;46439;51.164;13.572;2024-01-15T09:02:43;13.30;;;5.60;;
60610;SDS011;46439;51.164;13.572;2024-01-15T09:05:11;10.80;;;5.10;;
60610;SDS011;46439;51.164;13.572;2024-01-15T09:07:40;12.10;;;5.50;;
60610;SDS011;46439;51.164;13.572;2024-01-15T09:10:08;10.50;;;5.60;;
60610;SDS011;46439;51.164;13.572;2024-01-15T09:12:36;11.50;;;5.70;;
60610;SDS011;46439;51.164;13.572;2024-01-15T09:15:06;11.30;;;5.80;;
60610;SDS011;46439;51.164;13.572;2024-01-15T09:17:35;13.60;;;5.50;;
60610;SDS011;46439;51.164;13.572;2024-01-15T09:20:03;11.70;;;5.20;;
60610;SDS011;46439;51.164;13.572;2024-01-15T09:22:33;13.10;;;6.10;;
60610;SDS011;46439;51.164;13.572;2024-01-15T09:25:01;16.00;;;5.50;;
60610;SDS011;46439;51.164;13.572;2024-01-15T09:27:30;13.40;;;5.70;;
60610;SDS011;46439;51.164;13.572;2024-01-15T09:29:59;13.00;;;5.80;;
60610;SDS011;46439;51.164;13.572;2024-01-15T09:32:27;15.10;;;6.30;;
60610;SDS011;46439;51.164;13.572;2024-01-15T09:34:55;12.20;;;5.20;;
60610;SDS011;46439;51.164;13.572;2024-01-15T09:37:24;9.80;;;4.40;;
60610;SDS011;46439;51.164;13.572;2024-01-15T09:39:52;10.80;;;5.20;;
60610;SDS011;46439;51.164;13.572;2024-01-15T09:42:22;12.50;;;5.40;;
60610;SDS011;46439;51.164;13.572;2024-01-15T09:44:51;10.30;;;5.40;;
60610;SDS011;46439;51.164;13.572;2024-01-15T09:47:19;11.40;;;5.50;;
60610;SDS011;46439;51.164;13.572;2024-01-15T09:49:49;10.60;;;5.20;;
60610;SDS011;46439;51.164;13.572;2024-01-15T09:52:17;11.20;;;4.90;;
60610;SDS011;46439;51.164;13.572;2024-01-15T09:54:47;12.90;;;5.90;;
60610;SDS011;46439;51.164;13.572;2024-01-15T09:57:16;11.40;;;5.50;;
60610;SDS011;46439;51.164;13.572;2024-01-15T09:59:45;10.90;;;5.50;;
60610;SDS011;46439;51.164;13.572;2024-01-15T10:02:13;10.40;;;5.40;;
60610;SDS011;46439;51.164;13.572;2024-01-15T10:04:45;11.00;;;5.70;;
60610;SDS011;46439;51.164;13.572;2024-01-15T10:07:15;11.70;;;5.70;;
60610;SDS011;46439;51.164;13.572;2024-01-15T10:09:46;11.00;;;5.30;;
60610;SDS011;46439;51.164;13.572;2024-01-15T10:12:14;10.10;;;5.60;;
60610;SDS011;46439;51.164;13.572;2024-01-15T10:14:42;11.50;;;5.40;;
60610;SDS011;46439;51.164;13.572;2024-01-15T10:17:13;11.20;;;5.20;;
60610;SDS011;46439;51.164;13.572;2024-01-15T10:19:42;10.40;;;5.10;;
60610;SDS011;46439;51.164;13.572;2024-01-15T10:22:11;10.90;;;5.50;;
60610;SDS011;46439;51.164;13.572;2024-01-15T10:24:40;13.90;;;5.90;;
60610;SDS011;46439;51.164;13.572;2024-01-15T10:27:15;11.50;;;5.40;;
60610;SDS011;46439;51.164;13.572;2024-01-15T10:29:43;11.90;;;5.90;;
60610;SDS011;46439;51.164;13.572;2024-01-15T10:32:11;12.50;;;6.20;;
60610;SDS011;46439;51.164;13.572;2024-01-15T10:34:40;12.70;;;6.40;;
60610;SDS011;46439;51.164;13.572;2024-01-15T10:37:09;10.30;;;5.00;;
60610;SDS011;46439;51.164;13.572;2024-01-15T10:39:37;13.50;;;5.50;;
60610;SDS011;46439;51.164;13.572;2024-01-15T10:42:06;10.20;;;4.80;;
60610;SDS011;46439;51.164;13.572;2024-01-15T10:44:35;12.10;;;5.30;;
60610;SDS011;46439;51.164;13.572;2024-01-15T10:47:03;11.10;;;4.40;;
60610;SDS011;46439;51.164;13.572;2024-01-15T10:49:32;11.80;;;5.00;;
60610;SDS011;46439;51.164;13.572;2024-01-15T10:52:00;11.80;;;4.90;;
60610;SDS011;46439;51.164;13.572;2024-01-15T10:54:29;10.60;;;5.30;;
60610;SDS011;46439;51.164;13.572;2024-01-15T10:56:58;12.30;;;4.50;;
60610;SDS011;46439;51.164;13.572;2024-01-15T10:59:26;11.10;;;5.50;;
60610;SDS011;46439;51.164;13.572;2024-01-15T11:01:55;11.00;;;5.00;;
60610;SDS011;46439;51.164;13.572;2024-01-15T11:04:23;10.50;;;4.90;;
60610;SDS011;46439;51.164;13.572;2024-01-15T11:06:55;9.30;;;4.80;;
60610;SDS011;46439;51.164;13.572;2024-01-15T11:09:24;10.00;;;4.90;;
60610;SDS011;46439;51.164;13.572;2024-01-15T11:11:52;11.40;;;4.80;;
60610;SDS011;46439;51.164;13.572;2024-01-15T11:14:38;10.80;;;5.40;;
60610;SDS011;46439;51.164;13.572;2024-01-15T11:17:07;11.10;;;5.00;;
60610;SDS011;46439;51.164;13.572;2024-01-15T11:19:36;9.40;;;5.00;;
60610;SDS011;46439;51.164;13.572;2024-01-15T11:22:09;10.20;;;4.60;;
60610;SDS011;46439;51.164;13.572;2024-01-15T11:25:01;13.00;;;5.40;;
60610;SDS011;46439;51.164;13.572;2024-01-15T11:27:42;12.10;;;5.50;;
60610;SDS011;46439;51.164;13.572;2024-01-15T11:30:14;10.00;;;4.30;;
60610;SDS011;46439;51.164;13.572;2024-01-15T11:32:42;11.10;;;5.00;;
60610;SDS011;46439;51.164;13.572;2024-01-15T11:35:12;9.00;;;4.30;;
60610;SDS011;46439;51.164;13.572;2024-01-15T11:38:00;8.80;;;4.50;;
60610;SDS011;46439;51.164;13.572;2024-01-15T11:40:38;10.40;;;4.90;;
60610;SDS011;46439;51.164;13.572;2024-01-15T11:43:09;9.90;;;4.80;;
60610;SDS011;46439;51.164;13.572;2024-01-15T11:45:39;9.80;;;4.50;;
60610;SDS011;46439;51.164;13.572;2024-01-15T11:48:11;8.40;;;4.50;;
60610;SDS011;46439;51.164;13.572;2024-01-15T11:50:42;9.90;;;4.90;;
60610;SDS011;46439;51.164;13.572;2024-01-15T11:53:16;8.90;;;4.30;;
60610;SDS011;46439;51.164;13.572;2024-01-15T11:55:47;8.80;;;3.80;;
60610;SDS011;46439;51.164;13.572;2024-01-15T11:58:19;12.10;;;5.50;;
60610;SDS011;46439;51.164;13.572;2024-01-15T12:00:48;8.30;;;4.40;;
60610;SDS011;46439;51.164;13.572;2024-01-15T12:03:17;9.50;;;4.60;;
60610;SDS011;46439;51.164;13.572;2024-01-15T12:05:46;11.80;;;4.10;;
60610;SDS011;46439;51.164;13.572;2024-01-15T12:08:14;10.40;;;4.40;;
60610;SDS011;46439;51.164;13.572;2024-01-15T12:13:14;9.60;;;4.60;;
60610;SDS011;46439;51.164;13.572;2024-01-15T12:15:44;13.40;;;5.60;;
60610;SDS011;46439;51.164;13.572;2024-01-15T12:18:15;9.40;;;4.40;;
60610;SDS011;46439;51.164;13.572;2024-01-15T12:20:44;9.30;;;4.80;;
60610;SDS011;46439;51.164;13.572;2024-01-15T12:23:13;10.00;;;5.00;;
60610;SDS011;46439;51.164;13.572;2024-01-15T12:25:41;13.30;;;6.40;;
60610;SDS011;46439;51.164;13.572;2024-01-15T12:28:10;12.90;;;5.00;;
60610;SDS011;46439;51.164;13.572;2024-01-15T12:30:38;12.00;;;5.30;;
60610;SDS011;46439;51.164;13.572;2024-01-15T12:33:07;8.90;;;4.40;;
60610;SDS011;46439;51.164;13.572;2024-01-15T12:35:35;10.30;;;4.50;;
60610;SDS011;46439;51.164;13.572;2024-01-15T12:38:04;9.40;;;4.00;;
60610;SDS011;46439;51.164;13.572;2024-01-15T12:40:32;8.90;;;3.90;;
60610;SDS011;46439;51.164;13.572;2024-01-15T12:43:01;8.60;;;4.20;;
60610;SDS011;46439;51.164;13.572;2024-01-15T12:45:29;8.10;;;4.20;;
60610;SDS011;46439;51.164;13.572;2024-01-15T12:47:58;8.90;;;4.40;;
60610;SDS011;46439;51.164;13.572;2024-01-15T12:50:27;11.90;;;4.30;;
60610;SDS011;46439;51.164;13.572;2024-01-15T12:52:55;9.10;;;4.40;;
60610;SDS011;46439;51.164;13.572;2024-01-15T12:55:25;8.40;;;3.80;;
60610;SDS011;46439;51.164;13.572;2024-01-15T12:57:54;8.70;;;4.50;;
60610;SDS011;46439;51.164;13.572;2024-01-15T13:00:22;9.70;;;4.30;;
60610;SDS011;46439;51.164;13.572;2024-01-15T13:02:52;7.20;;;3.70;;
60610;SDS011;46439;51.164;13.572;2024-01-15T13:05:21;7.50;;;4.00;;
60610;SDS011;46439;51.164;13.572;2024-01-15T13:07:51;8.30;;;4.00;;
60610;SDS011;46439;51.164;13.572;2024-01-15T13:10:19;9.10;;;4.30;;
60610;SDS011;46439;51.164;13.572;2024-01-15T13:12:47;8.80;;;3.80;;
60610;SDS011;46439;51.164;13.572;2024-01-15T13:15:16;8.10;;;4.20;;
60610;SDS011;46439;51.164;13.572;2024-01-15T13:17:44;8.10;;;4.10;;
60610;SDS011;46439;51.164;13.572;2024-01-15T13:20:12;9.30;;;3.90;;
60610;SDS011;46439;51.164;13.572;2024-01-15T13:22:40;8.90;;;4.20;;
60610;SDS011;46439;51.164;13.572;2024-01-15T13:25:10;11.60;;;4.80;;
60610;SDS011;46439;51.164;13.572;2024-01-15T13:27:38;11.90;;;4.70;;
60610;SDS011;46439;51.164;13.572;2024-01-15T13:30:07;7.10;;;3.50;;
60610;SDS011;46439;51.164;13.572;2024-01-15T13:32:37;9.80;;;4.70;;
60610;SDS011;46439;51.164;13.572;2024-01-15T13:35:05;10.30;;;4.80;;
60610;SDS011;46439;51.164;13.572;2024-01-15T13:37:36;8.70;;;4.30;;
60610;SDS011;46439;51.164;13.572;2024-01-15T13:40:05;12.10;;;4.10;;
60610;SDS011;46439;51.164;13.572;2024-01-15T13:42:36;9.90;;;4.50;;
60610;SDS011;46439;51.164;13.572;2024-01-15T13:45:07;8.90;;;4.10;;
60610;SDS011;46439;51.164;13.572;2024-01-15T13:47:35;10.80;;;4.20;;
60610;SDS011;46439;51.164;13.572;2024-01-15T13:50:04;7.30;;;3.90;;
60610;SDS011;46439;51.164;13.572;2024-01-15T13:52:34;10.50;;;5.00;;
60610;SDS011;46439;51.164;13.572;2024-01-15T13:55:02;9.60;;;4.90;;
60610;SDS011;46439;51.164;13.572;2024-01-15T13:57:32;8.60;;;4.90;;
60610;SDS011;46439;51.164;13.572;2024-01-15T14:00:00;11.10;;;4.50;;
60610;SDS011;46439;51.164;13.572;2024-01-15T14:02:36;10.20;;;4.80;;
60610;SDS011;46439;51.164;13.572;2024-01-15T14:05:04;11.20;;;4.50;;
60610;SDS011;46439;51.164;13.572;2024-01-15T14:07:33;8.80;;;5.30;;
60610;SDS011;46439;51.164;13.572;2024-01-15T14:10:01;15.10;;;6.00;;
60610;SDS011;46439;51.164;13.572;2024-01-15T14:12:29;14.00;;;5.80;;
60610;SDS011;46439;51.164;13.572;2024-01-15T14:14:57;22.80;;;8.30;;
60610;SDS011;46439;51.164;13.572;2024-01-15T14:17:26;13.10;;;6.50;;
60610;SDS011;46439;51.164;13.572;2024-01-15T14:19:54;13.90;;;5.50;;
60610;SDS011;46439;51.164;13.572;2024-01-15T14:22:22;11.50;;;6.30;;
60610;SDS011;46439;51.164;13.572;2024-01-15T14:24:50;12.80;;;5.50;;
60610;SDS011;46439;51.164;13.572;2024-01-15T14:27:19;12.90;;;6.10;;
60610;SDS011;46439;51.164;13.572;2024-01-15T14:29:47;13.60;;;5.70;;
60610;SDS011;46439;51.164;13.572;2024-01-15T14:32:16;9.20;;;4.70;;
60610;SDS011;46439;51.164;13.572;2024-01-15T14:34:44;12.50;;;6.20;;